createdAt,value
2022-11-16T00:00:23.887Z,67.43
2022-11-16T00:01:30.010Z,67.44
2022-11-16T00:02:32.384Z,67.45
2022-11-16T00:03:35.542Z,67.38
2022-11-16T00:04:40.311Z,67.52
2022-11-16T00:05:44.841Z,67.37
2022-11-16T00:06:49.681Z,67.45
2022-11-16T00:07:51.954Z,67.54
2022-11-16T00:09:20.939Z,67.54
2022-11-16T00:10:23.101Z,67.29
2022-11-16T00:11:25.244Z,67.48
2022-11-16T00:12:27.623Z,67.57
2022-11-16T00:13:32.735Z,67.46
2022-11-16T00:14:39.155Z,67.62
2022-11-16T00:15:41.544Z,67.56
2022-11-16T00:16:44.476Z,67.57
2022-11-16T00:17:46.729Z,67.75
2022-11-16T00:18:48.919Z,67.65
2022-11-16T00:19:51.112Z,67.60
2022-11-16T00:20:53.392Z,67.75
2022-11-16T00:21:56.649Z,67.79
2022-11-16T00:22:58.829Z,67.71
2022-11-16T00:24:02.092Z,67.68
2022-11-16T00:25:04.778Z,67.72
2022-11-16T00:26:11.510Z,67.68
2022-11-16T00:27:13.746Z,67.66
2022-11-16T00:28:16.065Z,67.66
2022-11-16T00:29:24.148Z,67.69
2022-11-16T00:30:26.608Z,67.66
2022-11-16T00:31:28.865Z,67.75
2022-11-16T00:32:31.601Z,67.62
2022-11-16T00:33:34.557Z,67.76
2022-11-16T00:34:36.903Z,67.78
2022-11-16T00:35:39.899Z,67.89
2022-11-16T00:36:42.224Z,67.83
2022-11-16T00:37:45.336Z,67.83
2022-11-16T00:38:53.065Z,67.86
2022-11-16T00:39:55.214Z,67.86
2022-11-16T00:41:00.382Z,67.79
2022-11-16T00:42:03.117Z,67.90
2022-11-16T00:43:05.348Z,67.81
2022-11-16T00:44:07.767Z,67.66
2022-11-16T00:45:10.343Z,67.75
2022-11-16T00:46:12.853Z,67.87
2022-11-16T00:47:15.118Z,67.82
2022-11-16T00:48:17.348Z,67.83
2022-11-16T00:49:19.695Z,67.75
2022-11-16T00:50:21.967Z,67.80
2022-11-16T00:51:24.144Z,67.75
2022-11-16T00:52:28.782Z,67.87
2022-11-16T00:53:34.670Z,67.84
2022-11-16T00:54:36.950Z,67.73
2022-11-16T00:55:39.398Z,67.70
2022-11-16T00:56:41.629Z,67.66
2022-11-16T00:57:43.912Z,67.66
2022-11-16T00:58:46.205Z,67.63
2022-11-16T00:59:48.454Z,67.57
2022-11-16T01:00:51.086Z,67.60
2022-11-16T01:01:53.357Z,67.54
2022-11-16T01:02:55.753Z,67.58
2022-11-16T01:03:57.932Z,67.71
2022-11-16T01:05:00.145Z,67.52
2022-11-16T01:06:06.099Z,67.46
2022-11-16T01:07:08.337Z,67.48
2022-11-16T01:08:10.889Z,67.57
2022-11-16T01:09:15.368Z,67.46
2022-11-16T01:10:20.869Z,67.39
2022-11-16T01:11:41.469Z,67.31
2022-11-16T01:12:45.621Z,67.33
2022-11-16T01:13:49.642Z,67.22
2022-11-16T01:14:51.937Z,67.08
2022-11-16T01:15:54.422Z,67.19
2022-11-16T01:16:56.609Z,67.18
2022-11-16T01:17:58.840Z,67.22
2022-11-16T01:19:01.231Z,67.20
2022-11-16T01:20:08.581Z,67.20
2022-11-16T01:21:10.883Z,67.22
2022-11-16T01:22:13.098Z,67.27
2022-11-16T01:23:15.391Z,67.17
2022-11-16T01:24:17.583Z,67.05
2022-11-16T01:25:20.343Z,67.12
2022-11-16T01:26:23.613Z,67.19
2022-11-16T01:27:26.050Z,67.06
2022-11-16T01:28:30.772Z,67.03
2022-11-16T01:29:33.268Z,67.06
2022-11-16T01:30:36.784Z,67.14
2022-11-16T01:31:43.175Z,67.13
2022-11-16T01:32:48.088Z,67.20
2022-11-16T01:33:53.828Z,67.05
2022-11-16T01:34:59.619Z,66.94
2022-11-16T01:36:14.573Z,67.11
2022-11-16T01:37:18.474Z,66.99
2022-11-16T01:38:23.091Z,67.10
2022-11-16T01:39:28.225Z,67.00
2022-11-16T01:40:35.122Z,67.08
2022-11-16T01:41:37.449Z,66.96
2022-11-16T01:42:41.422Z,66.88
2022-11-16T01:43:57.644Z,66.82
2022-11-16T01:45:19.123Z,66.93
2022-11-16T01:46:22.044Z,66.83
2022-11-16T01:47:25.072Z,66.69
2022-11-16T01:48:30.483Z,66.85
2022-11-16T01:49:36.616Z,66.88
2022-11-16T01:50:42.162Z,66.78
2022-11-16T01:51:49.325Z,66.86
2022-11-16T01:52:59.625Z,66.88
2022-11-16T01:54:12.474Z,66.82
2022-11-16T01:55:25.438Z,66.85
2022-11-16T01:56:48.874Z,66.94
2022-11-16T01:58:01.844Z,66.79
2022-11-16T01:59:05.897Z,66.89
2022-11-16T02:00:09.895Z,66.90
2022-11-16T02:01:26.310Z,66.76
2022-11-16T02:02:32.628Z,66.85
2022-11-16T02:03:40.382Z,66.84
2022-11-16T02:04:44.263Z,66.93
2022-11-16T02:05:58.837Z,66.90
2022-11-16T02:07:06.651Z,66.86
2022-11-16T02:09:09.112Z,66.96
2022-11-16T02:10:47.147Z,66.95
2022-11-16T02:12:08.060Z,66.85
2022-11-16T02:13:31.113Z,66.91
2022-11-16T02:14:51.339Z,66.80
2022-11-16T02:16:09.244Z,66.91
2022-11-16T02:17:20.123Z,66.92
2022-11-16T02:18:45.320Z,66.92
2022-11-16T02:19:56.493Z,67.00
2022-11-16T02:21:13.991Z,67.05
2022-11-16T02:22:24.947Z,67.04
2022-11-16T02:23:45.108Z,67.00
2022-11-16T02:25:04.876Z,67.10
2022-11-16T02:26:17.792Z,67.06
2022-11-16T02:27:50.137Z,67.14
2022-11-16T02:29:22.092Z,67.21
2022-11-16T02:30:24.836Z,67.13
2022-11-16T02:31:35.744Z,67.18
2022-11-16T02:32:44.137Z,67.20
2022-11-16T02:33:50.387Z,67.34
2022-11-16T02:35:01.647Z,67.36
2022-11-16T02:36:07.773Z,67.35
2022-11-16T02:37:12.438Z,67.36
2022-11-16T02:38:19.785Z,67.28
2022-11-16T02:39:29.545Z,67.33
2022-11-16T02:40:35.916Z,67.26
2022-11-16T02:41:41.505Z,67.42
2022-11-16T02:43:11.386Z,67.30
2022-11-16T02:44:24.417Z,67.34
2022-11-16T02:45:33.934Z,67.33
2022-11-16T02:46:38.445Z,67.37
2022-11-16T02:47:46.074Z,67.33
2022-11-16T02:48:53.477Z,67.44
2022-11-16T02:50:05.091Z,67.45
2022-11-16T02:51:08.273Z,67.41
2022-11-16T02:52:15.907Z,67.35
2022-11-16T02:53:18.873Z,67.44
2022-11-16T02:54:23.749Z,67.47
2022-11-16T02:55:29.130Z,67.32
2022-11-16T02:56:44.068Z,67.37
2022-11-16T02:57:59.199Z,67.49
2022-11-16T02:59:04.085Z,67.35
2022-11-16T03:00:18.747Z,67.45
2022-11-16T03:01:38.379Z,67.31
2022-11-16T03:03:00.670Z,67.31
2022-11-16T03:04:18.808Z,67.25
2022-11-16T03:05:33.801Z,67.31
2022-11-16T03:06:41.690Z,67.33
2022-11-16T03:08:02.143Z,67.30
2022-11-16T03:09:18.506Z,67.25
2022-11-16T03:10:41.101Z,67.33
2022-11-16T03:11:59.988Z,67.40
2022-11-16T03:13:07.118Z,67.41
2022-11-16T03:14:16.586Z,67.42
2022-11-16T03:15:19.363Z,67.31
2022-11-16T03:16:31.945Z,67.35
2022-11-16T03:17:49.306Z,67.25
2022-11-16T03:18:55.752Z,67.36
2022-11-16T03:20:12.992Z,67.31
2022-11-16T03:21:22.614Z,67.32
2022-11-16T03:22:28.472Z,67.26
2022-11-16T03:23:31.161Z,67.35
2022-11-16T03:24:33.752Z,67.40
2022-11-16T03:25:47.836Z,67.47
2022-11-16T03:27:05.487Z,67.32
2022-11-16T03:28:15.754Z,67.38
2022-11-16T03:29:29.417Z,67.37
2022-11-16T03:30:47.778Z,67.37
2022-11-16T03:31:58.535Z,67.36
2022-11-16T03:33:08.359Z,67.27
2022-11-16T03:34:16.632Z,67.36
2022-11-16T03:35:23.339Z,67.36
2022-11-16T03:36:33.721Z,67.29
2022-11-16T03:37:37.229Z,67.50
2022-11-16T03:38:42.107Z,67.40
2022-11-16T03:39:45.045Z,67.47
2022-11-16T03:40:50.755Z,67.50
2022-11-16T03:41:54.029Z,67.50
2022-11-16T03:42:58.232Z,67.52
2022-11-16T03:44:01.949Z,67.45
2022-11-16T03:45:07.924Z,67.43
2022-11-16T03:46:10.525Z,67.50
2022-11-16T03:47:13.865Z,67.63
2022-11-16T03:48:16.271Z,67.52
2022-11-16T03:49:22.468Z,67.46
2022-11-16T03:50:27.271Z,67.43
2022-11-16T03:51:29.671Z,67.51
2022-11-16T03:52:32.486Z,67.44
2022-11-16T03:53:37.694Z,67.41
2022-11-16T03:54:39.989Z,67.40
2022-11-16T03:55:47.039Z,67.46
2022-11-16T03:56:52.019Z,67.41
2022-11-16T03:57:54.462Z,67.44
2022-11-16T03:58:56.827Z,67.41
2022-11-16T03:59:59.176Z,67.41
2022-11-16T04:01:03.569Z,67.52
2022-11-16T04:02:06.340Z,67.39
2022-11-16T04:03:08.633Z,67.47
2022-11-16T04:04:31.283Z,67.42
2022-11-16T04:05:52.287Z,67.33
2022-11-16T04:07:13.156Z,67.22
2022-11-16T04:08:51.147Z,67.17
2022-11-16T04:10:26.077Z,67.16
2022-11-16T04:11:47.273Z,66.94
2022-11-16T04:13:15.327Z,67.01
2022-11-16T04:14:39.533Z,66.92
2022-11-16T04:16:02.393Z,66.91
2022-11-16T04:17:24.893Z,66.86
2022-11-16T04:18:45.462Z,66.91
2022-11-16T04:20:08.943Z,66.83
2022-11-16T04:21:47.788Z,66.77
2022-11-16T04:23:08.648Z,66.71
2022-11-16T04:24:16.935Z,66.67
2022-11-16T04:25:27.102Z,66.67
2022-11-16T04:26:48.090Z,66.41
2022-11-16T04:28:09.112Z,66.59
2022-11-16T04:29:12.874Z,66.48
2022-11-16T04:30:15.798Z,66.41
2022-11-16T04:31:42.775Z,66.35
2022-11-16T04:33:05.616Z,66.56
2022-11-16T04:34:27.332Z,66.25
2022-11-16T04:35:51.333Z,66.16
2022-11-16T04:37:11.828Z,66.17
2022-11-16T04:38:17.815Z,66.16
2022-11-16T04:39:20.231Z,66.22
2022-11-16T04:40:25.764Z,66.15
2022-11-16T04:41:49.555Z,66.06
2022-11-16T04:42:56.506Z,66.07
2022-11-16T04:43:59.170Z,65.98
2022-11-16T04:45:20.284Z,66.00
2022-11-16T04:46:45.119Z,65.90
2022-11-16T04:47:51.374Z,65.96
2022-11-16T04:48:54.986Z,65.98
2022-11-16T04:49:57.200Z,65.91
2022-11-16T04:50:59.718Z,65.88
2022-11-16T04:52:02.352Z,65.84
2022-11-16T04:53:07.287Z,65.83
2022-11-16T04:54:16.123Z,65.74
2022-11-16T04:55:19.164Z,65.64
2022-11-16T04:56:25.892Z,65.59
2022-11-16T04:57:28.617Z,65.66
2022-11-16T04:58:31.697Z,65.58
2022-11-16T04:59:34.210Z,65.52
2022-11-16T05:00:36.968Z,65.49
2022-11-16T05:01:57.721Z,65.52
2022-11-16T05:03:01.772Z,65.38
2022-11-16T05:04:07.442Z,65.59
2022-11-16T05:05:10.565Z,65.39
2022-11-16T05:06:15.704Z,65.39
2022-11-16T05:07:18.054Z,65.41
2022-11-16T05:08:21.560Z,65.35
2022-11-16T05:09:26.304Z,65.28
2022-11-16T05:10:28.733Z,65.28
2022-11-16T05:11:33.788Z,65.32
2022-11-16T05:12:36.325Z,65.27
2022-11-16T05:13:40.778Z,65.35
2022-11-16T05:14:43.987Z,65.30
2022-11-16T05:15:46.733Z,65.42
2022-11-16T05:16:49.020Z,65.22
2022-11-16T05:17:51.702Z,65.26
2022-11-16T05:19:16.030Z,65.17
2022-11-16T05:20:36.991Z,65.17
2022-11-16T05:21:40.462Z,65.15
2022-11-16T05:22:44.255Z,65.01
2022-11-16T05:24:05.810Z,65.01
2022-11-16T05:25:11.321Z,65.08
2022-11-16T05:26:13.595Z,64.97
2022-11-16T05:27:17.873Z,65.07
2022-11-16T05:28:25.503Z,64.93
2022-11-16T05:29:28.141Z,64.97
2022-11-16T05:30:30.341Z,64.76
2022-11-16T05:31:40.145Z,64.89
2022-11-16T05:32:44.249Z,64.81
2022-11-16T05:33:48.299Z,64.83
2022-11-16T05:34:51.529Z,64.73
2022-11-16T05:35:53.893Z,64.72
2022-11-16T05:36:57.212Z,64.67
2022-11-16T05:37:59.528Z,64.73
2022-11-16T05:39:05.458Z,64.74
2022-11-16T05:40:11.453Z,64.86
2022-11-16T05:41:22.842Z,64.74
2022-11-16T05:42:25.528Z,64.71
2022-11-16T05:43:30.058Z,64.51
2022-11-16T05:44:44.680Z,64.52
2022-11-16T05:45:46.969Z,64.62
2022-11-16T05:46:51.461Z,64.58
2022-11-16T05:47:54.440Z,64.45
2022-11-16T05:48:56.783Z,64.40
2022-11-16T05:49:59.937Z,64.29
2022-11-16T05:51:06.622Z,64.25
2022-11-16T05:52:12.792Z,64.18
2022-11-16T05:53:16.295Z,64.18
2022-11-16T05:54:20.961Z,64.18
2022-11-16T05:55:25.882Z,64.23
2022-11-16T05:56:28.315Z,64.13
2022-11-16T05:57:30.666Z,64.17
2022-11-16T05:58:33.298Z,64.24
2022-11-16T05:59:36.188Z,63.99
2022-11-16T06:00:39.566Z,63.96
2022-11-16T06:01:44.504Z,63.84
2022-11-16T06:02:49.508Z,64.00
2022-11-16T06:04:03.123Z,64.03
2022-11-16T06:05:07.612Z,63.90
2022-11-16T06:06:10.365Z,64.00
2022-11-16T06:07:16.011Z,63.91
2022-11-16T06:08:21.392Z,63.92
2022-11-16T06:09:29.996Z,63.91
2022-11-16T06:10:37.198Z,63.86
2022-11-16T06:11:41.400Z,63.75
2022-11-16T06:12:43.599Z,63.79
2022-11-16T06:13:45.930Z,63.75
2022-11-16T06:14:48.164Z,63.79
2022-11-16T06:15:50.522Z,63.64
2022-11-16T06:16:53.381Z,63.67
2022-11-16T06:17:55.757Z,63.64
2022-11-16T06:18:59.149Z,63.57
2022-11-16T06:20:01.388Z,63.59
2022-11-16T06:21:03.941Z,63.55
2022-11-16T06:22:07.121Z,63.57
2022-11-16T06:23:09.455Z,63.59
2022-11-16T06:24:11.989Z,63.50
2022-11-16T06:25:14.308Z,63.50
2022-11-16T06:26:19.132Z,63.57
2022-11-16T06:27:22.305Z,63.46
2022-11-16T06:28:25.576Z,63.50
2022-11-16T06:29:28.516Z,63.52
2022-11-16T06:30:30.866Z,63.26
2022-11-16T06:31:33.103Z,63.48
2022-11-16T06:32:37.305Z,63.48
2022-11-16T06:33:40.864Z,63.45
2022-11-16T06:34:51.337Z,63.63
2022-11-16T06:35:53.668Z,63.43
2022-11-16T06:36:59.195Z,63.48
2022-11-16T06:38:01.614Z,63.43
2022-11-16T06:39:04.325Z,63.43
2022-11-16T06:40:10.982Z,63.60
2022-11-16T06:41:17.060Z,63.41
2022-11-16T06:42:26.181Z,63.44
2022-11-16T06:43:29.593Z,63.32
2022-11-16T06:44:31.838Z,63.38
2022-11-16T06:45:38.450Z,63.29
2022-11-16T06:46:40.854Z,63.34
2022-11-16T06:47:43.057Z,63.34
2022-11-16T06:48:47.652Z,63.10
2022-11-16T06:49:52.599Z,63.03
2022-11-16T06:50:57.589Z,63.09
2022-11-16T06:51:59.839Z,63.11
2022-11-16T06:53:02.267Z,63.13
2022-11-16T06:54:06.276Z,63.07
2022-11-16T06:55:09.049Z,63.01
2022-11-16T06:56:15.261Z,62.98
2022-11-16T06:57:22.756Z,63.10
2022-11-16T06:58:25.234Z,63.04
2022-11-16T06:59:27.865Z,63.05
2022-11-16T07:00:30.158Z,62.94
2022-11-16T07:01:32.562Z,62.99
2022-11-16T07:02:40.284Z,63.05
2022-11-16T07:03:46.093Z,62.97
2022-11-16T07:04:49.015Z,63.08
2022-11-16T07:05:51.752Z,63.02
2022-11-16T07:06:55.120Z,63.04
2022-11-16T07:07:57.521Z,63.03
2022-11-16T07:09:00.579Z,62.90
2022-11-16T07:10:07.207Z,63.05
2022-11-16T07:11:10.789Z,62.86
2022-11-16T07:12:13.296Z,63.06
2022-11-16T07:13:18.557Z,62.97
2022-11-16T07:14:20.822Z,63.12
2022-11-16T07:15:23.197Z,63.05
2022-11-16T07:16:25.412Z,63.12
2022-11-16T07:17:33.390Z,63.06
2022-11-16T07:18:37.495Z,63.09
2022-11-16T07:19:40.290Z,63.02
2022-11-16T07:20:42.807Z,62.96
2022-11-16T07:21:45.053Z,63.04
2022-11-16T07:22:51.367Z,63.05
2022-11-16T07:23:59.718Z,62.99
2022-11-16T07:25:02.020Z,62.97
2022-11-16T07:26:08.942Z,62.88
2022-11-16T07:27:21.346Z,62.94
2022-11-16T07:28:27.599Z,62.95
2022-11-16T07:29:31.575Z,62.95
2022-11-16T07:30:52.087Z,63.01
2022-11-16T07:32:02.086Z,62.96
2022-11-16T07:33:25.283Z,62.90
2022-11-16T07:34:46.058Z,62.90
2022-11-16T07:35:53.998Z,62.96
2022-11-16T07:36:56.732Z,63.03
2022-11-16T07:37:59.165Z,63.04
2022-11-16T07:39:04.412Z,62.81
2022-11-16T07:40:07.445Z,62.81
2022-11-16T07:41:14.746Z,62.79
2022-11-16T07:42:25.106Z,62.93
2022-11-16T07:43:37.429Z,62.78
2022-11-16T07:44:49.317Z,62.76
2022-11-16T07:45:53.251Z,62.82
2022-11-16T07:46:58.088Z,62.83
2022-11-16T07:48:01.130Z,62.85
2022-11-16T07:49:22.015Z,62.81
2022-11-16T07:50:28.976Z,62.71
2022-11-16T07:51:32.509Z,62.81
2022-11-16T07:52:47.145Z,62.72
2022-11-16T07:53:56.716Z,62.75
2022-11-16T07:54:59.240Z,62.68
2022-11-16T07:56:04.297Z,62.54
2022-11-16T07:57:09.084Z,62.59
2022-11-16T07:58:11.359Z,62.50
2022-11-16T07:59:14.382Z,62.56
2022-11-16T08:00:19.886Z,62.31
2022-11-16T08:01:30.936Z,62.40
2022-11-16T08:02:35.553Z,62.22
2022-11-16T08:03:39.463Z,62.27
2022-11-16T08:04:42.338Z,62.27
2022-11-16T08:05:44.933Z,62.21
2022-11-16T08:06:47.964Z,62.10
2022-11-16T08:07:50.232Z,62.14
2022-11-16T08:08:58.320Z,62.04
2022-11-16T08:10:02.125Z,62.15
2022-11-16T08:11:07.098Z,62.14
2022-11-16T08:12:09.294Z,62.20
2022-11-16T08:13:14.063Z,62.20
2022-11-16T08:14:19.318Z,62.11
2022-11-16T08:15:25.192Z,62.15
2022-11-16T08:16:27.769Z,62.16
2022-11-16T08:17:38.721Z,62.00
2022-11-16T08:18:43.217Z,62.00
2022-11-16T08:19:45.412Z,61.93
2022-11-16T08:20:50.493Z,61.88
2022-11-16T08:21:52.721Z,61.84
2022-11-16T08:22:59.532Z,61.91
2022-11-16T08:24:01.848Z,61.89
2022-11-16T08:25:05.871Z,61.92
2022-11-16T08:26:18.616Z,61.77
2022-11-16T08:27:36.207Z,61.73
2022-11-16T08:28:40.363Z,61.75
2022-11-16T08:29:46.221Z,61.62
2022-11-16T08:30:53.878Z,61.66
2022-11-16T08:31:59.090Z,61.58
2022-11-16T08:33:02.504Z,61.55
2022-11-16T08:34:08.232Z,61.63
2022-11-16T08:35:13.528Z,61.52
2022-11-16T08:36:19.173Z,61.60
2022-11-16T08:37:23.265Z,61.62
2022-11-16T08:38:25.440Z,61.67
2022-11-16T08:39:27.641Z,61.66
2022-11-16T08:40:33.582Z,61.62
2022-11-16T08:41:37.713Z,61.54
2022-11-16T08:42:44.020Z,61.50
2022-11-16T08:43:47.458Z,61.55
2022-11-16T08:44:50.107Z,61.47
2022-11-16T08:45:54.903Z,61.49
2022-11-16T08:46:57.706Z,61.29
2022-11-16T08:48:11.051Z,61.35
2022-11-16T08:49:13.291Z,61.51
2022-11-16T08:50:16.456Z,61.45
2022-11-16T08:51:21.778Z,61.34
2022-11-16T08:52:31.059Z,61.51
2022-11-16T08:53:34.352Z,61.33
2022-11-16T08:54:36.581Z,61.46
2022-11-16T08:55:38.794Z,61.51
2022-11-16T08:56:41.066Z,61.60
2022-11-16T08:57:45.266Z,61.38
2022-11-16T08:58:52.526Z,61.50
2022-11-16T08:59:57.936Z,61.31
2022-11-16T09:01:12.032Z,61.35
2022-11-16T09:02:14.483Z,61.33
2022-11-16T09:03:16.744Z,61.28
2022-11-16T09:04:19.075Z,61.35
2022-11-16T09:05:21.278Z,61.35
2022-11-16T09:06:24.867Z,61.42
2022-11-16T09:07:27.215Z,61.43
2022-11-16T09:08:29.627Z,61.24
2022-11-16T09:09:31.905Z,61.35
2022-11-16T09:10:34.105Z,61.27
2022-11-16T09:11:36.302Z,61.30
2022-11-16T09:12:39.166Z,61.17
2022-11-16T09:13:41.616Z,61.36
2022-11-16T09:14:43.871Z,61.20
2022-11-16T09:15:46.056Z,61.30
2022-11-16T09:16:48.283Z,61.21
2022-11-16T09:17:54.966Z,61.05
2022-11-16T09:18:57.247Z,61.14
2022-11-16T09:19:59.441Z,61.12
2022-11-16T09:21:02.677Z,61.01
2022-11-16T09:22:07.565Z,60.86
2022-11-16T09:23:09.788Z,60.75
2022-11-16T09:24:12.058Z,60.75
2022-11-16T09:25:14.463Z,60.86
2022-11-16T09:26:20.994Z,60.81
2022-11-16T09:27:23.579Z,60.81
2022-11-16T09:28:27.397Z,60.84
2022-11-16T09:29:29.624Z,60.81
2022-11-16T09:30:31.902Z,60.76
2022-11-16T09:31:34.973Z,60.71
2022-11-16T09:32:37.271Z,60.76
2022-11-16T09:33:39.498Z,60.76
2022-11-16T09:34:41.754Z,60.73
2022-11-16T09:35:44.189Z,60.65
2022-11-16T09:36:49.183Z,60.86
2022-11-16T09:37:51.352Z,60.73
2022-11-16T09:39:23.843Z,60.71
2022-11-16T09:40:17.093Z,60.72
2022-11-16T09:41:29.346Z,60.64
2022-11-16T09:43:02.190Z,60.73
2022-11-16T09:44:27.259Z,60.60
2022-11-16T09:45:52.155Z,60.50
2022-11-16T09:46:57.678Z,60.33
2022-11-16T09:48:04.499Z,60.28
2022-11-16T09:49:33.471Z,60.21
2022-11-16T09:50:44.345Z,60.14
2022-11-16T09:51:53.509Z,60.14
2022-11-16T09:53:00.303Z,60.06
2022-11-16T09:54:06.507Z,60.06
2022-11-16T09:56:04.374Z,60.03
2022-11-16T09:57:12.543Z,59.95
2022-11-16T09:58:22.204Z,59.99
2022-11-16T09:59:48.473Z,59.93
2022-11-16T10:00:58.925Z,59.87
2022-11-16T10:02:25.126Z,60.04
2022-11-16T10:03:29.139Z,59.91
2022-11-16T10:04:38.949Z,59.93
2022-11-16T10:05:52.306Z,59.88
2022-11-16T10:07:06.008Z,59.91
2022-11-16T10:08:48.522Z,59.92
2022-11-16T10:09:51.088Z,59.99
2022-11-16T10:11:22.540Z,59.72
2022-11-16T10:13:00.406Z,59.69
2022-11-16T10:14:21.383Z,59.71
2022-11-16T10:15:39.061Z,59.62
2022-11-16T10:17:08.851Z,59.58
2022-11-16T10:18:38.761Z,59.72
2022-11-16T10:20:11.807Z,59.59
2022-11-16T10:21:21.570Z,59.46
2022-11-16T10:22:48.647Z,59.60
2022-11-16T10:24:18.702Z,59.63
2022-11-16T10:25:30.253Z,59.56
2022-11-16T10:26:43.003Z,59.42
2022-11-16T10:27:54.465Z,59.35
2022-11-16T10:29:33.642Z,59.39
2022-11-16T10:30:45.976Z,59.50
2022-11-16T10:32:28.999Z,59.53
2022-11-16T10:33:37.244Z,59.47
2022-11-16T10:35:05.496Z,59.44
2022-11-16T10:36:15.805Z,59.38
2022-11-16T10:37:18.250Z,59.53
2022-11-16T10:38:25.041Z,59.47
2022-11-16T10:39:27.745Z,59.39
2022-11-16T10:40:36.965Z,59.46
2022-11-16T10:41:42.211Z,59.34
2022-11-16T10:42:49.002Z,59.25
2022-11-16T10:43:51.396Z,59.22
2022-11-16T10:45:02.623Z,59.07
2022-11-16T10:46:22.180Z,59.13
2022-11-16T10:47:42.692Z,59.13
2022-11-16T10:49:02.941Z,59.12
2022-11-16T10:50:39.459Z,59.29
2022-11-16T10:51:42.901Z,59.09
2022-11-16T10:52:45.254Z,59.10
2022-11-16T10:53:50.881Z,58.91
2022-11-16T10:54:53.491Z,59.00
2022-11-16T10:56:32.723Z,59.12
2022-11-16T10:58:13.736Z,59.13
2022-11-16T10:59:19.058Z,58.92
2022-11-16T11:00:39.066Z,59.06
2022-11-16T11:01:57.937Z,59.15
2022-11-16T11:03:00.144Z,59.28
2022-11-16T11:04:31.749Z,59.22
2022-11-16T11:05:36.323Z,59.32
2022-11-16T11:06:39.346Z,59.25
2022-11-16T11:07:46.738Z,59.18
2022-11-16T11:08:48.930Z,59.01
2022-11-16T11:09:57.373Z,59.02
2022-11-16T11:11:25.454Z,58.91
2022-11-16T11:12:40.253Z,58.88
2022-11-16T11:13:45.494Z,58.68
2022-11-16T11:15:27.128Z,58.88
2022-11-16T11:16:31.849Z,58.77
2022-11-16T11:17:35.804Z,58.54
2022-11-16T11:18:38.054Z,58.59
2022-11-16T11:19:40.266Z,58.54
2022-11-16T11:20:47.990Z,58.43
2022-11-16T11:21:50.276Z,58.36
2022-11-16T11:23:04.795Z,58.25
2022-11-16T11:24:43.212Z,58.19
2022-11-16T11:25:51.418Z,58.13
2022-11-16T11:26:57.583Z,58.09
2022-11-16T11:28:16.972Z,58.10
2022-11-16T11:29:51.195Z,58.24
2022-11-16T11:30:59.330Z,58.17
2022-11-16T11:32:06.570Z,57.82
2022-11-16T11:33:12.859Z,57.96
2022-11-16T11:34:17.771Z,57.76
2022-11-16T11:35:27.080Z,57.99
2022-11-16T11:37:00.844Z,58.13
2022-11-16T11:38:08.092Z,58.02
2022-11-16T11:39:32.241Z,57.81
2022-11-16T11:40:36.985Z,57.82
2022-11-16T11:42:23.820Z,57.91
2022-11-16T11:43:27.461Z,57.71
2022-11-16T11:44:47.701Z,57.54
2022-11-16T11:46:05.917Z,57.54
2022-11-16T11:47:56.781Z,57.69
2022-11-16T11:49:07.834Z,57.56
2022-11-16T11:50:26.202Z,57.66
2022-11-16T11:51:36.401Z,57.66
2022-11-16T11:53:03.434Z,57.85
2022-11-16T11:54:13.087Z,57.85
2022-11-16T11:55:27.868Z,57.88
2022-11-16T11:56:32.315Z,57.77
2022-11-16T11:57:44.112Z,57.72
2022-11-16T11:58:48.083Z,57.74
2022-11-16T12:00:13.552Z,57.63
2022-11-16T12:01:51.421Z,57.67
2022-11-16T12:03:12.031Z,57.71
2022-11-16T12:04:37.919Z,57.56
2022-11-16T12:06:19.832Z,57.62
2022-11-16T12:07:48.551Z,57.56
2022-11-16T12:09:10.971Z,57.44
2022-11-16T12:10:31.226Z,57.15
2022-11-16T12:11:58.880Z,57.25
2022-11-16T12:13:39.744Z,57.20
2022-11-16T12:15:06.705Z,57.18
2022-11-16T12:16:32.658Z,57.16
2022-11-16T12:17:42.457Z,57.06
2022-11-16T12:19:16.893Z,57.16
2022-11-16T12:20:50.230Z,57.22
2022-11-16T12:22:01.416Z,57.10
2022-11-16T12:23:40.558Z,57.04
2022-11-16T12:25:15.611Z,57.12
2022-11-16T12:26:46.289Z,57.03
2022-11-16T12:28:24.697Z,57.27
2022-11-16T12:29:59.515Z,57.05
2022-11-16T12:34:01.705Z,57.26
2022-11-16T12:35:45.770Z,57.28
2022-11-16T12:36:57.704Z,57.21
2022-11-16T12:38:59.585Z,57.29
2022-11-16T12:41:01.366Z,57.31
2022-11-16T12:42:32.238Z,57.44
2022-11-16T12:43:54.839Z,57.35
2022-11-16T12:45:18.801Z,57.36
2022-11-16T12:49:01.164Z,57.37
2022-11-16T12:50:36.908Z,57.38
2022-11-16T12:52:24.078Z,57.15
2022-11-16T12:53:37.426Z,57.01
2022-11-16T12:55:27.919Z,56.96
2022-11-16T12:56:48.497Z,56.97
2022-11-16T13:00:39.699Z,57.18
2022-11-16T13:02:05.884Z,57.33
2022-11-16T13:03:09.750Z,57.24
2022-11-16T13:04:34.466Z,57.24
2022-11-16T13:05:42.725Z,56.93
2022-11-16T13:07:11.444Z,56.96
2022-11-16T13:08:42.278Z,57.28
2022-11-16T13:09:53.644Z,57.12
2022-11-16T13:11:04.796Z,57.21
2022-11-16T13:12:14.385Z,57.23
2022-11-16T13:13:36.297Z,57.08
2022-11-16T13:14:42.176Z,57.01
2022-11-16T13:15:48.196Z,56.93
2022-11-16T13:16:58.063Z,57.00
2022-11-16T13:18:04.064Z,56.96
2022-11-16T13:19:12.005Z,57.25
2022-11-16T13:21:02.707Z,57.26
2022-11-16T13:22:13.866Z,57.26
2022-11-16T13:23:34.262Z,57.23
2022-11-16T13:24:59.039Z,57.28
2022-11-16T13:26:23.641Z,57.45
2022-11-16T13:27:34.960Z,57.38
2022-11-16T13:29:08.098Z,57.40
2022-11-16T13:30:21.903Z,57.26
2022-11-16T13:31:39.822Z,57.17
2022-11-16T13:33:17.877Z,57.43
2022-11-16T13:34:32.323Z,57.40
2022-11-16T13:35:46.677Z,57.65
2022-11-16T13:36:52.642Z,57.46
2022-11-16T13:37:55.176Z,57.64
2022-11-16T13:39:00.996Z,57.65
2022-11-16T13:40:06.436Z,57.52
2022-11-16T13:41:38.017Z,57.84
2022-11-16T13:43:09.609Z,57.77
2022-11-16T13:44:27.031Z,58.02
2022-11-16T13:45:46.042Z,58.05
2022-11-16T13:46:57.343Z,58.46
2022-11-16T13:48:20.445Z,58.48
2022-11-16T13:49:52.658Z,58.50
2022-11-16T13:53:09.265Z,59.01
2022-11-16T13:54:43.953Z,59.05
2022-11-16T13:55:35.367Z,59.19
2022-11-16T13:56:55.305Z,59.00
2022-11-16T13:58:05.979Z,58.95
2022-11-16T13:59:16.800Z,59.01
2022-11-16T14:00:28.258Z,59.23
2022-11-16T14:01:59.806Z,59.29
2022-11-16T14:03:14.664Z,59.49
2022-11-16T14:04:42.905Z,59.44
2022-11-16T14:05:55.365Z,59.48
2022-11-16T14:07:03.338Z,59.56
2022-11-16T14:09:07.946Z,59.53
2022-11-16T14:10:47.251Z,59.57
2022-11-16T14:11:55.366Z,59.60
2022-11-16T14:13:08.279Z,59.75
2022-11-16T14:14:48.991Z,59.93
2022-11-16T14:20:32.025Z,59.97
2022-11-16T14:22:08.887Z,60.21
2022-11-16T14:26:26.019Z,60.29
2022-11-16T14:28:05.185Z,60.41
2022-11-16T14:29:52.776Z,60.33
2022-11-16T14:31:36.396Z,60.33
2022-11-16T14:33:15.623Z,60.44
2022-11-16T14:34:49.327Z,60.44
2022-11-16T14:37:05.615Z,60.57
2022-11-16T14:37:39.521Z,60.57
2022-11-16T14:40:07.954Z,60.58
2022-11-16T14:41:36.566Z,60.77
2022-11-16T14:47:29.472Z,60.73
2022-11-16T14:48:32.621Z,60.86
2022-11-16T14:49:37.674Z,60.91
2022-11-16T14:50:48.671Z,61.00
2022-11-16T14:51:55.104Z,61.01
2022-11-16T14:53:13.639Z,61.07
2022-11-16T14:54:26.074Z,61.10
2022-11-16T14:55:30.519Z,61.27
2022-11-16T14:56:35.134Z,60.99
2022-11-16T14:57:37.848Z,61.27
2022-11-16T14:58:51.466Z,61.31
2022-11-16T15:00:21.075Z,61.32
2022-11-16T15:01:28.699Z,61.43
2022-11-16T15:02:31.502Z,61.52
2022-11-16T15:03:59.119Z,61.49
2022-11-16T15:05:05.535Z,61.57
2022-11-16T15:06:08.936Z,61.84
2022-11-16T15:07:15.717Z,61.96
2022-11-16T15:08:26.513Z,62.03
2022-11-16T15:09:36.659Z,62.11
2022-11-16T15:10:52.529Z,62.18
2022-11-16T15:12:14.913Z,62.10
2022-11-16T15:13:25.149Z,62.19
2022-11-16T15:14:34.535Z,62.23
2022-11-16T15:15:39.229Z,62.30
2022-11-16T15:18:17.477Z,62.68
2022-11-16T15:19:22.624Z,62.51
2022-11-16T15:20:28.579Z,62.50
2022-11-16T15:21:31.098Z,62.39
2022-11-16T15:22:41.774Z,62.82
2022-11-16T15:24:02.087Z,62.75
2022-11-16T15:25:43.023Z,62.74
2022-11-16T15:26:51.270Z,62.90
2022-11-16T15:27:56.124Z,62.89
2022-11-16T15:29:02.142Z,63.10
2022-11-16T15:30:17.689Z,63.20
2022-11-16T15:31:22.899Z,63.14
2022-11-16T15:32:25.569Z,63.15
2022-11-16T15:33:37.761Z,63.10
2022-11-16T15:34:48.487Z,63.18
2022-11-16T15:35:51.067Z,63.45